Time;durP1;ratioP1;P1;durP2;ratioP2;P2;SDS_P1;SDS_P2;PMS_P1;PMS_P2;Temp;Humidity;BMP_temperature;BMP_pressure;BME280_temperature;BME280_humidity;BME280_pressure;Samples;Min_cycle;Max_cycle;Signal;HPM_P1;HPM_P2
2023/04/29 00:00:29;;;;;;;15.70;7.45;;;14.40;99.90;;;;;;6197054;28;20049;-79
2023/04/29 00:03:32;;;;;;;7.13;6.18;;;14.40;99.90;;;;;;6197891;28;20493;-79
2023/04/29 00:06:34;;;;;;;7.93;6.32;;;14.40;99.90;;;;;;6199313;28;20054;-79
2023/04/29 00:09:37;;;;;;;7.43;6.72;;;14.40;99.90;;;;;;6223392;28;20045;-79
2023/04/29 00:12:39;;;;;;;9.90;7.15;;;14.30;99.90;;;;;;6228237;28;20125;-79
2023/04/29 00:15:41;;;;;;;6.93;6.22;;;14.30;99.90;;;;;;6227122;28;20056;-79
2023/04/29 00:18:44;;;;;;;7.88;7.07;;;14.30;99.90;;;;;;6225084;28;20058;-79
2023/04/29 00:21:45;;;;;;;8.43;6.93;;;14.30;99.90;;;;;;6230998;28;20058;-79
2023/04/29 00:24:47;;;;;;;7.68;6.45;;;14.20;99.90;;;;;;6217271;28;20039;-79
2023/04/29 00:27:49;;;;;;;10.30;7.47;;;14.30;99.90;;;;;;6204619;28;20047;-79
2023/04/29 00:30:51;;;;;;;9.68;7.35;;;14.20;99.90;;;;;;6204776;28;20046;-79
2023/04/29 00:33:55;;;;;;;8.77;7.93;;;14.20;99.90;;;;;;6205196;28;20053;-79
2023/04/29 00:36:56;;;;;;;8.40;7.40;;;14.20;99.90;;;;;;6205331;28;20042;-79
2023/04/29 00:39:58;;;;;;;9.10;7.78;;;14.20;99.90;;;;;;6206190;28;20061;-80
2023/04/29 00:43:00;;;;;;;9.75;8.85;;;14.20;99.90;;;;;;6207780;28;20057;-80
2023/04/29 00:46:02;;;;;;;10.77;6.75;;;14.10;99.90;;;;;;6208642;28;20069;-79
2023/04/29 00:49:05;;;;;;;9.77;8.23;;;14.10;99.90;;;;;;6231034;28;20188;-79
2023/04/29 00:52:08;;;;;;;16.10;8.13;;;14.10;99.90;;;;;;6228112;28;20050;-80
2023/04/29 00:55:12;;;;;;;10.07;8.50;;;14.10;99.90;;;;;;6228562;28;20132;-79
2023/04/29 00:58:14;;;;;;;11.63;8.65;;;14.00;99.90;;;;;;6228541;28;20496;-79
2023/04/29 01:01:16;;;;;;;10.38;9.18;;;14.00;99.90;;;;;;6227865;28;20060;-78
2023/04/29 01:04:20;;;;;;;9.65;8.75;;;14.00;99.90;;;;;;6227161;28;20042;-79
2023/04/29 01:07:29;;;;;;;8.18;7.38;;;14.00;99.90;;;;;;6227558;28;20061;-79
2023/04/29 01:10:39;;;;;;;9.88;7.60;;;13.90;99.90;;;;;;6227372;28;20504;-80
2023/04/29 01:13:45;;;;;;;9.77;8.27;;;13.90;99.90;;;;;;6227690;28;20042;-79
2023/04/29 01:16:51;;;;;;;9.55;8.32;;;13.90;99.90;;;;;;6227399;28;20045;-79
2023/04/29 01:19:56;;;;;;;11.02;8.32;;;13.90;99.90;;;;;;6231731;28;20140;-80
2023/04/29 01:22:58;;;;;;;13.48;9.02;;;13.80;99.90;;;;;;6229807;28;20096;-80
2023/04/29 01:26:01;;;;;;;12.43;10.05;;;13.80;99.90;;;;;;6206696;28;20054;-80
2023/04/29 01:29:16;;;;;;;16.42;9.50;;;13.80;99.90;;;;;;6206931;28;20061;-79
2023/04/29 01:32:23;;;;;;;12.57;8.70;;;13.80;99.90;;;;;;6209754;28;20046;-79
2023/04/29 01:35:45;;;;;;;15.55;10.25;;;13.80;99.90;;;;;;6208350;28;20058;-79
2023/04/29 01:38:53;;;;;;;13.90;8.95;;;13.80;99.90;;;;;;6207993;28;20050;-79
2023/04/29 01:42:03;;;;;;;14.18;11.40;;;13.70;99.90;;;;;;6208054;28;20133;-79
2023/04/29 01:45:08;;;;;;;13.60;11.20;;;13.70;99.90;;;;;;6206687;28;20054;-80
2023/04/29 01:48:10;;;;;;;12.23;10.10;;;13.70;99.90;;;;;;6208411;28;20054;-79
2023/04/29 01:51:11;;;;;;;15.10;10.32;;;13.70;99.90;;;;;;6208094;28;20046;-80
2023/04/29 01:54:13;;;;;;;13.20;9.57;;;13.60;99.90;;;;;;6206099;28;20042;-79
2023/04/29 01:57:16;;;;;;;12.98;8.68;;;13.60;99.90;;;;;;6216662;28;20053;-79
2023/04/29 02:00:18;;;;;;;11.45;10.02;;;13.60;99.90;;;;;;6232079;28;20134;-79
2023/04/29 02:03:20;;;;;;;14.57;10.85;;;13.50;99.90;;;;;;6232566;28;20053;-79
2023/04/29 02:06:22;;;;;;;12.20;9.18;;;13.50;99.90;;;;;;6233431;28;20050;-79
2023/04/29 02:09:24;;;;;;;21.58;9.02;;;13.50;99.90;;;;;;6232994;28;20056;-78
2023/04/29 02:12:27;;;;;;;17.90;10.93;;;13.40;99.90;;;;;;6233877;28;20061;-79
2023/04/29 02:15:29;;;;;;;18.80;10.30;;;13.40;99.90;;;;;;6231989;28;20061;-79
2023/04/29 02:18:30;;;;;;;11.50;10.15;;;13.40;99.90;;;;;;6230693;28;20069;-78
2023/04/29 02:21:33;;;;;;;12.23;9.18;;;13.40;99.90;;;;;;6245207;28;20451;-80
2023/04/29 02:24:35;;;;;;;17.65;10.93;;;13.40;99.90;;;;;;6226927;28;20046;-79
2023/04/29 02:27:38;;;;;;;16.95;10.40;;;13.40;99.90;;;;;;6206707;28;20057;-79
2023/04/29 02:30:40;;;;;;;15.48;10.85;;;13.30;99.90;;;;;;6206435;28;20508;-79
2023/04/29 02:33:41;;;;;;;12.63;10.10;;;13.30;99.90;;;;;;6205988;28;20771;-81
2023/04/29 02:36:43;;;;;;;15.63;9.75;;;13.20;99.90;;;;;;6212285;28;20046;-80
2023/04/29 02:39:45;;;;;;;13.13;9.93;;;13.20;99.90;;;;;;6213651;28;20042;-81
2023/04/29 02:42:48;;;;;;;14.43;11.32;;;13.10;99.90;;;;;;6211777;28;20046;-81
2023/04/29 02:45:50;;;;;;;14.52;11.27;;;13.10;99.90;;;;;;6211444;28;20049;-79
2023/04/29 02:48:52;;;;;;;20.75;9.30;;;13.00;99.90;;;;;;6212313;28;20046;-80
2023/04/29 02:51:54;;;;;;;14.75;9.75;;;13.00;99.90;;;;;;6215092;28;20089;-80
2023/04/29 02:54:56;;;;;;;13.68;10.13;;;12.90;99.90;;;;;;6211386;28;20077;-81
2023/04/29 02:57:59;;;;;;;19.83;9.95;;;12.80;99.90;;;;;;6212152;28;20057;-80
2023/04/29 03:01:01;;;;;;;22.70;10.07;;;12.80;99.90;;;;;;6212201;28;20054;-80
2023/04/29 03:04:03;;;;;;;16.33;10.98;;;12.70;99.90;;;;;;6212346;28;20060;-80
2023/04/29 03:07:04;;;;;;;11.65;9.35;;;12.70;99.90;;;;;;6212228;28;20050;-81
2023/04/29 03:10:07;;;;;;;14.25;10.88;;;12.60;99.90;;;;;;6211762;28;20054;-81
2023/04/29 03:13:10;;;;;;;11.48;9.35;;;12.60;99.90;;;;;;6206643;28;20409;-81
2023/04/29 03:16:15;;;;;;;13.27;9.27;;;12.60;99.90;;;;;;6207714;28;20072;-80
2023/04/29 03:19:17;;;;;;;14.50;9.90;;;12.50;99.90;;;;;;6211105;28;20104;-81
2023/04/29 03:22:18;;;;;;;19.65;11.10;;;12.50;99.90;;;;;;6209249;28;20049;-79
2023/04/29 03:25:20;;;;;;;13.60;8.98;;;12.40;99.90;;;;;;6208340;28;20509;-79
2023/04/29 03:28:23;;;;;;;14.25;10.10;;;12.40;99.90;;;;;;6209163;28;20046;-80
2023/04/29 03:31:26;;;;;;;17.23;9.50;;;12.30;99.90;;;;;;6208314;28;20050;-80
2023/04/29 03:34:27;;;;;;;15.07;9.18;;;12.20;99.90;;;;;;6222315;28;20041;-81
2023/04/29 03:37:29;;;;;;;20.13;10.57;;;12.20;99.90;;;;;;6237905;28;20045;-82
2023/04/29 03:40:31;;;;;;;16.00;9.35;;;12.20;99.90;;;;;;6240298;28;20042;-81
2023/04/29 03:43:34;;;;;;;16.98;9.40;;;12.10;99.90;;;;;;6240874;28;20061;-82
2023/04/29 03:46:35;;;;;;;17.35;10.00;;;12.10;99.90;;;;;;6238334;28;20050;-81
2023/04/29 03:49:37;;;;;;;14.35;10.18;;;12.00;99.90;;;;;;6236706;28;20053;-81
2023/04/29 03:52:39;;;;;;;14.35;9.35;;;11.90;99.90;;;;;;6236217;28;20314;-81
2023/04/29 03:55:41;;;;;;;16.40;9.90;;;11.90;99.90;;;;;;6237309;28;20053;-82
2023/04/29 03:58:45;;;;;;;14.23;8.98;;;11.80;99.90;;;;;;6235503;28;20049;-82
2023/04/29 04:01:46;;;;;;;19.63;11.60;;;11.80;99.90;;;;;;6234172;28;20042;-82
2023/04/29 04:04:48;;;;;;;13.32;10.68;;;11.80;99.90;;;;;;6233822;28;20042;-81
2023/04/29 04:07:50;;;;;;;16.05;9.10;;;11.80;99.90;;;;;;6235654;28;20061;-82
2023/04/29 04:10:51;;;;;;;13.25;10.23;;;11.70;99.90;;;;;;6234729;28;20042;-81
2023/04/29 04:13:54;;;;;;;21.42;11.50;;;11.70;99.90;;;;;;6234516;28;20409;-84
2023/04/29 04:16:56;;;;;;;20.45;10.30;;;11.60;99.90;;;;;;6235978;28;20516;-81
2023/04/29 04:19:58;;;;;;;14.50;10.20;;;11.60;99.90;;;;;;6235197;28;20050;-82
2023/04/29 04:22:59;;;;;;;16.05;10.70;;;11.60;99.90;;;;;;6235337;28;20053;-82
2023/04/29 04:26:01;;;;;;;20.90;10.98;;;11.70;99.90;;;;;;6233077;28;20045;-81
2023/04/29 04:29:04;;;;;;;17.05;10.07;;;11.60;99.90;;;;;;6236527;28;20041;-80
2023/04/29 04:32:06;;;;;;;16.02;10.05;;;11.70;99.90;;;;;;6234313;28;20049;-82
2023/04/29 04:35:08;;;;;;;13.80;8.82;;;11.60;99.90;;;;;;6235048;28;20113;-81
2023/04/29 04:38:11;;;;;;;26.23;11.02;;;11.70;99.90;;;;;;6233285;28;20064;-81
2023/04/29 04:41:13;;;;;;;20.05;9.65;;;11.60;99.90;;;;;;6235903;28;20138;-82
2023/04/29 04:44:16;;;;;;;15.13;9.75;;;11.60;99.90;;;;;;6237335;28;20057;-82
2023/04/29 04:47:17;;;;;;;14.05;10.23;;;11.70;99.90;;;;;;6239281;28;20053;-82
2023/04/29 04:50:20;;;;;;;16.85;10.63;;;11.70;99.90;;;;;;6240719;28;20052;-82
2023/04/29 04:53:22;;;;;;;13.98;10.20;;;11.80;99.90;;;;;;6241877;28;20071;-83
2023/04/29 04:56:24;;;;;;;17.08;9.55;;;11.80;99.90;;;;;;6241921;28;20056;-82
2023/04/29 04:59:27;;;;;;;16.77;10.15;;;11.90;99.90;;;;;;6241924;28;20062;-84
2023/04/29 05:02:28;;;;;;;12.30;9.18;;;12.10;99.90;;;;;;6241401;28;20054;-82
2023/04/29 05:05:33;;;;;;;13.63;8.43;;;12.20;99.90;;;;;;6243489;28;20050;-82
2023/04/29 05:08:34;;;;;;;13.88;9.73;;;12.30;99.90;;;;;;6240676;28;20042;-82
2023/04/29 05:11:37;;;;;;;9.43;7.85;;;12.50;99.90;;;;;;6240005;28;20060;-82
2023/04/29 05:14:40;;;;;;;8.57;7.18;;;12.60;99.90;;;;;;6238970;28;20046;-81
2023/04/29 05:17:41;;;;;;;9.93;7.28;;;12.70;99.90;;;;;;6234604;28;20678;-81
2023/04/29 05:20:43;;;;;;;10.27;6.68;;;12.80;99.90;;;;;;6236024;28;20068;-82
2023/04/29 05:23:45;;;;;;;6.60;6.00;;;12.80;99.90;;;;;;6230580;28;20050;-82
2023/04/29 05:26:48;;;;;;;6.25;5.13;;;13.00;99.90;;;;;;6215620;28;20050;-82
2023/04/29 05:29:52;;;;;;;5.50;5.00;;;13.80;99.90;;;;;;6214096;28;20045;-83
2023/04/29 05:32:53;;;;;;;9.52;5.88;;;14.50;99.90;;;;;;6214076;28;20058;-82
2023/04/29 05:35:55;;;;;;;5.28;4.78;;;14.50;99.90;;;;;;6214246;28;20051;-82
2023/04/29 05:38:57;;;;;;;5.95;4.00;;;14.30;99.90;;;;;;6213092;28;20138;-83
2023/04/29 05:41:58;;;;;;;5.40;4.90;;;13.90;99.90;;;;;;6216967;28;20105;-81
2023/04/29 05:45:03;;;;;;;5.55;5.05;;;14.20;99.90;;;;;;6217336;28;20050;-83
2023/04/29 05:48:05;;;;;;;7.50;3.15;;;14.90;99.90;;;;;;6213267;28;20050;-83
2023/04/29 05:51:06;;;;;;;4.82;3.40;;;15.50;99.90;;;;;;6214811;28;20049;-81
2023/04/29 05:54:08;;;;;;;4.38;3.10;;;16.10;99.90;;;;;;6212401;28;20050;-82
2023/04/29 05:57:10;;;;;;;13.35;2.42;;;16.40;99.90;;;;;;6216144;28;20252;-83
2023/04/29 06:00:13;;;;;;;8.18;3.20;;;16.30;99.90;;;;;;6215679;28;20052;-83
2023/04/29 06:03:15;;;;;;;3.63;2.50;;;16.40;99.90;;;;;;6233587;28;20056;-83
2023/04/29 06:06:17;;;;;;;3.33;2.97;;;16.50;99.90;;;;;;6239988;28;20060;-83
2023/04/29 06:09:19;;;;;;;4.95;3.25;;;16.30;99.90;;;;;;6238279;28;20046;-82
2023/04/29 06:12:21;;;;;;;3.72;2.53;;;15.90;99.90;;;;;;6239145;28;20042;-82
2023/04/29 06:15:24;;;;;;;4.53;2.63;;;15.60;99.90;;;;;;6240643;28;20439;-83
2023/04/29 06:18:26;;;;;;;2.72;2.38;;;15.40;99.90;;;;;;6239564;28;20192;-83
2023/04/29 06:21:27;;;;;;;3.22;2.75;;;15.40;99.90;;;;;;6240143;28;20105;-86
2023/04/29 06:24:29;;;;;;;2.78;2.58;;;15.40;99.90;;;;;;6226119;28;20047;-83
2023/04/29 06:27:31;;;;;;;3.65;2.83;;;15.30;99.90;;;;;;6209243;28;20270;-83
2023/04/29 06:30:34;;;;;;;4.43;3.35;;;15.20;99.90;;;;;;6210381;28;20462;-82
2023/04/29 06:33:36;;;;;;;3.42;3.13;;;15.00;99.90;;;;;;6209780;28;20050;-83
2023/04/29 06:36:37;;;;;;;4.15;2.97;;;14.80;99.90;;;;;;6209808;28;20038;-82
2023/04/29 06:39:39;;;;;;;4.18;3.33;;;14.60;99.90;;;;;;6211548;28;20049;-83
2023/04/29 06:42:42;;;;;;;4.60;2.88;;;14.60;99.90;;;;;;6209626;28;20046;-83
2023/04/29 06:45:47;;;;;;;3.35;3.05;;;14.60;99.90;;;;;;6211153;28;20042;-84
2023/04/29 06:48:48;;;;;;;3.88;3.13;;;14.60;99.90;;;;;;6212380;28;20042;-82
2023/04/29 06:51:50;;;;;;;4.50;3.47;;;14.70;99.90;;;;;;6212703;28;20053;-82
2023/04/29 06:54:52;;;;;;;4.63;3.33;;;14.80;99.90;;;;;;6212008;28;20057;-83
2023/04/29 06:57:53;;;;;;;5.57;2.97;;;14.80;99.90;;;;;;6212980;28;20057;-83
2023/04/29 07:00:56;;;;;;;4.70;4.07;;;14.80;99.90;;;;;;6229869;28;20056;-82
2023/04/29 07:03:58;;;;;;;7.85;4.50;;;14.80;99.90;;;;;;6235718;28;20057;-83
2023/04/29 07:07:00;;;;;;;6.78;3.83;;;14.70;99.90;;;;;;6236792;28;20045;-81
2023/04/29 07:10:02;;;;;;;4.65;4.05;;;14.70;99.90;;;;;;6235267;28;20038;-84
2023/04/29 07:13:04;;;;;;;7.40;3.42;;;14.70;99.90;;;;;;6233931;28;20121;-81
2023/04/29 07:16:15;;;;;;;7.05;3.15;;;15.00;99.90;;;;;;6218454;28;20085;-84
2023/04/29 07:19:17;;;;;;;4.47;2.53;;;15.90;99.90;;;;;;6219383;28;20056;-84
2023/04/29 07:22:19;;;;;;;3.35;2.40;;;17.20;99.90;;;;;;6232320;28;20050;-81
2023/04/29 07:25:21;;;;;;;4.03;2.45;;;18.00;99.90;;;;;;6219386;28;20062;-80
2023/04/29 07:28:23;;;;;;;3.35;2.65;;;18.00;99.90;;;;;;6210925;28;20038;-81
2023/04/29 07:31:26;;;;;;;3.13;2.83;;;17.70;99.90;;;;;;6213185;28;20042;-80
2023/04/29 07:34:28;;;;;;;4.10;3.42;;;17.30;99.90;;;;;;6212503;28;20054;-81
2023/04/29 07:37:29;;;;;;;6.03;3.72;;;17.20;99.90;;;;;;6223334;28;20057;-81
2023/04/29 07:40:31;;;;;;;6.03;3.50;;;17.00;99.90;;;;;;6234387;28;20046;-80
2023/04/29 07:43:33;;;;;;;4.53;3.25;;;17.10;99.90;;;;;;6233851;28;20050;-80
2023/04/29 07:46:36;;;;;;;5.13;3.53;;;17.20;99.90;;;;;;6210625;28;20474;-80
2023/04/29 07:49:38;;;;;;;4.13;3.30;;;17.20;99.90;;;;;;6210866;28;20058;-81
2023/04/29 07:52:40;;;;;;;6.60;2.70;;;17.10;99.90;;;;;;6209417;28;20053;-80
2023/04/29 07:55:42;;;;;;;3.72;3.20;;;17.10;99.90;;;;;;6208931;28;20054;-79
2023/04/29 07:58:43;;;;;;;4.07;3.60;;;17.40;99.90;;;;;;6202365;28;20051;-80
2023/04/29 08:01:46;;;;;;;3.60;3.13;;;17.60;99.90;;;;;;6202022;28;20053;-80
2023/04/29 08:04:49;;;;;;;2.90;2.67;;;17.70;99.90;;;;;;6205959;28;20417;-80
2023/04/29 08:07:51;;;;;;;4.82;4.05;;;17.50;99.90;;;;;;6205211;28;20061;-80
2023/04/29 08:10:53;;;;;;;5.68;3.00;;;17.30;99.90;;;;;;6205768;28;20046;-79
2023/04/29 08:13:57;;;;;;;3.92;3.00;;;17.50;99.90;;;;;;6210412;28;20050;-80
2023/04/29 08:17:00;;;;;;;4.65;3.42;;;17.90;99.90;;;;;;6228040;28;20132;-79
2023/04/29 08:20:02;;;;;;;3.80;3.47;;;17.90;99.90;;;;;;6228265;28;20497;-79
2023/04/29 08:23:03;;;;;;;3.42;2.85;;;17.80;99.90;;;;;;6228743;28;20046;-78
2023/04/29 08:26:05;;;;;;;3.47;3.17;;;17.70;99.90;;;;;;6203744;28;20057;-79
2023/04/29 08:29:07;;;;;;;5.90;3.47;;;17.60;99.90;;;;;;6206255;28;20046;-81
2023/04/29 08:32:10;;;;;;;4.70;2.50;;;17.70;99.90;;;;;;6207236;28;20050;-80
2023/04/29 08:35:12;;;;;;;4.47;4.07;;;18.50;99.90;;;;;;6209586;28;20054;-80
2023/04/29 08:38:14;;;;;;;2.85;2.65;;;20.00;99.90;;;;;;6205420;28;20038;-80
2023/04/29 08:41:16;;;;;;;3.13;2.83;;;20.60;99.90;;;;;;6210904;28;20058;-80
2023/04/29 08:44:18;;;;;;;2.22;2.03;;;20.30;99.90;;;;;;6216780;28;20520;-80
2023/04/29 08:47:21;;;;;;;6.28;3.65;;;20.90;99.90;;;;;;6218652;28;20055;-81
2023/04/29 08:50:24;;;;;;;4.25;3.85;;;21.60;99.90;;;;;;6223937;28;20105;-80
2023/04/29 08:53:27;;;;;;;3.83;2.78;;;21.90;99.90;;;;;;6220190;28;20045;-81
2023/04/29 08:56:31;;;;;;;3.92;3.38;;;21.60;99.80;;;;;;6220570;28;20077;-80
2023/04/29 08:59:33;;;;;;;3.72;2.90;;;21.20;99.70;;;;;;6212753;28;20061;-81
2023/04/29 09:02:41;;;;;;;3.45;3.15;;;20.80;99.60;;;;;;6210901;28;20057;-81
2023/04/29 09:05:45;;;;;;;4.95;2.47;;;20.50;99.00;;;;;;6212242;28;20046;-81
2023/04/29 09:08:47;;;;;;;6.38;2.95;;;19.80;99.50;;;;;;6233244;28;20532;-80
2023/04/29 09:11:48;;;;;;;4.32;2.70;;;19.40;99.90;;;;;;6239005;28;20114;-80
2023/04/29 09:14:50;;;;;;;3.22;2.92;;;19.20;99.90;;;;;;6238924;28;20049;-80
2023/04/29 09:17:53;;;;;;;3.13;2.83;;;18.60;99.80;;;;;;6239683;28;20100;-81
2023/04/29 09:20:55;;;;;;;5.40;3.20;;;17.90;99.90;;;;;;6238932;28;20050;-79
2023/04/29 09:23:59;;;;;;;4.60;2.88;;;17.70;99.90;;;;;;6238483;28;20088;-80
2023/04/29 09:27:02;;;;;;;2.92;2.72;;;17.50;99.90;;;;;;6238570;28;20050;-80
2023/04/29 09:30:04;;;;;;;3.00;2.80;;;17.40;99.90;;;;;;6236518;28;20050;-80
2023/04/29 09:33:09;;;;;;;3.63;3.28;;;17.30;99.90;;;;;;6237487;28;20060;-80
2023/04/29 09:36:11;;;;;;;4.00;3.65;;;17.10;99.90;;;;;;6234971;28;20050;-80
2023/04/29 09:39:15;;;;;;;3.67;3.10;;;16.90;99.90;;;;;;6238343;28;20064;-81
2023/04/29 09:42:17;;;;;;;7.10;3.95;;;16.70;99.90;;;;;;6235816;28;20077;-81
2023/04/29 09:45:33;;;;;;;3.80;3.50;;;16.60;99.90;;;;;;6235546;28;20069;-80
2023/04/29 09:48:37;;;;;;;5.60;3.78;;;16.60;99.90;;;;;;6238801;28;20053;-79
2023/04/29 09:51:52;;;;;;;4.95;3.50;;;16.60;99.90;;;;;;6238904;28;20436;-79
2023/04/29 09:55:05;;;;;;;5.72;3.17;;;16.60;99.90;;;;;;6239546;28;20042;-79
2023/04/29 09:58:07;;;;;;;4.63;3.80;;;16.60;99.90;;;;;;6233663;28;20051;-80
2023/04/29 10:01:12;;;;;;;6.15;3.70;;;16.60;99.90;;;;;;6214289;28;20046;-79
2023/04/29 10:04:16;;;;;;;7.68;3.80;;;16.60;99.90;;;;;;6213857;28;20117;-80
2023/04/29 10:07:19;;;;;;;4.10;3.55;;;16.50;99.90;;;;;;6207648;28;20089;-79
2023/04/29 10:10:23;;;;;;;3.55;3.15;;;16.60;99.90;;;;;;6207264;28;20049;-79
2023/04/29 10:13:25;;;;;;;5.07;3.92;;;16.60;99.90;;;;;;6205117;28;20077;-79
2023/04/29 10:16:29;;;;;;;8.45;4.07;;;16.60;99.90;;;;;;6206165;28;20038;-79
2023/04/29 10:19:38;;;;;;;7.25;5.22;;;16.60;99.90;;;;;;6206356;28;20051;-79
2023/04/29 10:22:45;;;;;;;5.22;3.42;;;16.60;99.90;;;;;;6204885;28;20046;-79
2023/04/29 10:25:50;;;;;;;6.65;4.00;;;16.60;99.90;;;;;;6205007;28;20051;-79
2023/04/29 10:28:53;;;;;;;5.60;3.38;;;16.80;99.90;;;;;;6205636;28;20051;-79
2023/04/29 10:31:57;;;;;;;5.50;4.63;;;16.80;99.90;;;;;;6206480;28;20049;-79
2023/04/29 10:35:02;;;;;;;4.75;3.70;;;17.00;99.90;;;;;;6206068;28;20050;-79
2023/04/29 10:38:10;;;;;;;4.50;4.07;;;17.30;99.90;;;;;;6205328;28;20058;-79
2023/04/29 10:41:20;;;;;;;4.20;3.80;;;17.70;99.90;;;;;;6204877;28;20436;-79
2023/04/29 10:44:22;;;;;;;5.97;4.20;;;18.40;99.90;;;;;;6210475;28;20077;-81
2023/04/29 10:47:24;;;;;;;8.23;5.78;;;19.10;99.90;;;;;;6214317;28;20054;-81
2023/04/29 10:50:29;;;;;;;9.85;5.32;;;19.40;99.90;;;;;;6211457;28;20053;-80
2023/04/29 10:53:31;;;;;;;7.15;5.57;;;19.40;99.90;;;;;;6207236;28;20050;-81
2023/04/29 10:56:38;;;;;;;13.18;10.68;;;19.40;99.90;;;;;;6207808;28;20042;-80
2023/04/29 10:59:46;;;;;;;9.27;6.47;;;19.10;99.90;;;;;;6209678;28;20056;-80
2023/04/29 11:02:48;;;;;;;7.22;6.40;;;18.70;99.90;;;;;;6208369;28;20129;-79
2023/04/29 11:06:08;;;;;;;6.80;5.60;;;18.70;99.90;;;;;;6208288;28;20355;-82
2023/04/29 11:09:13;;;;;;;6.45;5.82;;;18.50;99.90;;;;;;6209012;28;20523;-80
2023/04/29 11:12:20;;;;;;;6.60;4.93;;;18.30;99.90;;;;;;6207854;28;20046;-80
2023/04/29 11:15:22;;;;;;;6.75;5.05;;;18.00;99.90;;;;;;6207097;28;20047;-79
2023/04/29 11:18:23;;;;;;;8.70;5.78;;;17.80;99.90;;;;;;6215270;28;20050;-80
2023/04/29 11:21:27;;;;;;;12.23;9.40;;;17.70;99.90;;;;;;6231190;28;20049;-80
2023/04/29 11:24:29;;;;;;;9.02;7.65;;;17.50;99.90;;;;;;6229876;28;20042;-80
2023/04/29 11:27:32;;;;;;;23.60;6.93;;;17.50;99.90;;;;;;6230571;28;20057;-80
2023/04/29 11:30:36;;;;;;;5.95;5.03;;;17.30;99.90;;;;;;6228091;28;20057;-80
2023/04/29 11:33:38;;;;;;;20.10;14.38;;;17.20;99.90;;;;;;6228602;28;20050;-79
2023/04/29 11:36:41;;;;;;;7.45;6.75;;;17.10;99.90;;;;;;6217098;28;20534;-80
2023/04/29 11:39:45;;;;;;;10.13;7.93;;;17.10;99.90;;;;;;6207252;28;20046;-82
2023/04/29 11:42:48;;;;;;;5.95;5.15;;;17.00;99.90;;;;;;6226522;28;20453;-83
2023/04/29 11:45:51;;;;;;;10.25;8.35;;;17.00;99.90;;;;;;6219026;28;20053;-84
2023/04/29 11:48:54;;;;;;;7.90;6.53;;;16.90;99.90;;;;;;6225874;28;20092;-83
2023/04/29 11:52:01;;;;;;;12.82;11.40;;;16.80;99.90;;;;;;6228271;28;20516;-81
2023/04/29 11:55:03;;;;;;;11.77;8.90;;;16.90;99.90;;;;;;6207670;28;20781;-83
2023/04/29 11:58:05;;;;;;;8.55;7.13;;;16.90;99.90;;;;;;6207996;28;20057;-82
2023/04/29 12:01:07;;;;;;;11.80;7.50;;;16.90;99.90;;;;;;6209467;28;20054;-81
2023/04/29 12:04:08;;;;;;;7.80;6.88;;;16.90;99.90;;;;;;6214887;28;20055;-82
2023/04/29 12:07:11;;;;;;;7.38;6.35;;;16.90;99.90;;;;;;6237552;28;20050;-81
2023/04/29 12:10:13;;;;;;;11.02;9.93;;;16.80;99.90;;;;;;6233451;28;20049;-81
2023/04/29 12:13:15;;;;;;;8.52;6.47;;;16.80;99.90;;;;;;6239536;28;20046;-81
2023/04/29 12:16:17;;;;;;;8.73;6.28;;;16.70;99.90;;;;;;6237593;28;20049;-82
2023/04/29 12:19:19;;;;;;;8.70;6.80;;;16.60;99.90;;;;;;6238410;28;20057;-82
2023/04/29 12:22:22;;;;;;;7.82;6.00;;;16.50;99.90;;;;;;6236712;28;20633;-82
2023/04/29 12:25:26;;;;;;;9.20;6.80;;;16.50;99.90;;;;;;6242994;28;20048;-80
2023/04/29 12:28:29;;;;;;;9.80;6.07;;;16.50;99.90;;;;;;6246775;28;20430;-82
2023/04/29 12:31:35;;;;;;;7.63;6.43;;;16.50;99.90;;;;;;6238267;28;20042;-82
2023/04/29 12:34:39;;;;;;;12.93;8.43;;;16.50;99.90;;;;;;6233057;28;20082;-82
2023/04/29 12:37:42;;;;;;;7.03;6.15;;;16.50;99.90;;;;;;6239625;28;20042;-82
2023/04/29 12:40:44;;;;;;;10.05;7.75;;;16.50;99.90;;;;;;6242356;28;20053;-82
2023/04/29 12:43:46;;;;;;;11.52;10.57;;;16.50;99.90;;;;;;6239237;28;20053;-82
2023/04/29 12:46:47;;;;;;;12.00;10.05;;;16.60;99.90;;;;;;6240204;28;20046;-82
2023/04/29 12:49:50;;;;;;;8.50;6.70;;;16.70;99.90;;;;;;6240242;28;20057;-82
2023/04/29 12:52:53;;;;;;;7.45;5.90;;;16.90;99.90;;;;;;6240572;28;20512;-82
2023/04/29 12:55:54;;;;;;;7.15;6.28;;;17.00;99.90;;;;;;6240869;28;20057;-83
2023/04/29 12:58:57;;;;;;;7.97;6.82;;;17.10;99.90;;;;;;6240835;28;20057;-81
2023/04/29 13:01:58;;;;;;;8.38;5.65;;;17.20;99.90;;;;;;6239316;28;20065;-82
2023/04/29 13:05:00;;;;;;;12.35;9.15;;;17.10;99.90;;;;;;6234657;28;20046;-82
2023/04/29 13:08:05;;;;;;;8.60;7.20;;;17.20;99.90;;;;;;6213235;28;20050;-82
2023/04/29 13:11:07;;;;;;;8.50;7.68;;;17.50;99.90;;;;;;6218024;28;20037;-82
2023/04/29 13:14:10;;;;;;;8.95;5.80;;;17.70;99.90;;;;;;6237197;28;20448;-82
2023/04/29 13:17:11;;;;;;;9.50;6.00;;;17.90;99.90;;;;;;6237389;28;20053;-82
2023/04/29 13:20:14;;;;;;;6.88;6.18;;;18.10;99.60;;;;;;6234440;28;20056;-82
2023/04/29 13:23:17;;;;;;;8.32;5.63;;;18.10;99.10;;;;;;6237558;28;20502;-81
2023/04/29 13:26:18;;;;;;;8.73;6.55;;;18.10;98.80;;;;;;6232641;28;20523;-82
2023/04/29 13:29:20;;;;;;;10.73;8.00;;;18.20;98.50;;;;;;6211281;28;20050;-81
2023/04/29 13:32:23;;;;;;;8.63;6.60;;;18.30;98.40;;;;;;6215284;28;20046;-82
2023/04/29 13:35:24;;;;;;;7.07;6.38;;;18.40;98.20;;;;;;6225653;28;20548;-82
2023/04/29 13:38:27;;;;;;;9.35;7.03;;;18.40;97.90;;;;;;6229954;28;20042;-83
2023/04/29 13:41:30;;;;;;;10.73;8.38;;;18.30;97.80;;;;;;6227971;28;20068;-84
2023/04/29 13:44:31;;;;;;;7.78;6.97;;;18.30;97.40;;;;;;6239305;28;20042;-82
2023/04/29 13:47:33;;;;;;;7.05;6.35;;;18.20;96.50;;;;;;6235401;28;20519;-81
2023/04/29 13:50:35;;;;;;;6.80;5.55;;;18.00;96.80;;;;;;6236648;28;20060;-82
2023/04/29 13:53:38;;;;;;;7.88;5.22;;;18.00;97.10;;;;;;6228973;28;20049;-82
2023/04/29 13:56:40;;;;;;;6.20;5.60;;;18.20;97.20;;;;;;6235167;28;20509;-82
2023/04/29 13:59:41;;;;;;;8.18;6.68;;;18.20;97.10;;;;;;6238750;28;20050;-80
2023/04/29 14:02:43;;;;;;;8.30;5.97;;;18.40;96.80;;;;;;6234737;28;20045;-81
2023/04/29 14:05:45;;;;;;;8.07;5.50;;;18.40;96.50;;;;;;6224664;28;20046;-81
2023/04/29 14:08:48;;;;;;;8.00;6.07;;;18.50;96.50;;;;;;6210609;28;20049;-80
2023/04/29 14:11:50;;;;;;;7.38;6.68;;;18.50;96.30;;;;;;6213227;28;22662;-81
2023/04/29 14:14:52;;;;;;;7.55;6.53;;;18.50;95.90;;;;;;6212802;28;20065;-80
2023/04/29 14:17:53;;;;;;;7.15;6.32;;;18.10;95.80;;;;;;6218883;28;20061;-80
2023/04/29 14:20:56;;;;;;;6.32;5.72;;;18.10;96.10;;;;;;6221120;28;20050;-81
2023/04/29 14:24:01;;;;;;;7.88;5.93;;;18.00;96.10;;;;;;6215311;28;20054;-81
2023/04/29 14:27:03;;;;;;;7.20;6.00;;;17.90;96.10;;;;;;6215483;28;20081;-81
2023/04/29 14:30:06;;;;;;;5.95;5.18;;;17.80;96.40;;;;;;6218810;28;20057;-81
2023/04/29 14:33:07;;;;;;;7.82;6.72;;;17.80;96.40;;;;;;6214541;28;20061;-79
2023/04/29 14:36:09;;;;;;;8.10;5.03;;;17.80;96.60;;;;;;6214537;28;20155;-80
2023/04/29 14:39:12;;;;;;;6.40;4.82;;;17.80;96.50;;;;;;6214123;28;20093;-81
2023/04/29 14:42:14;;;;;;;6.80;6.10;;;17.70;96.60;;;;;;6214604;28;20042;-80
2023/04/29 14:45:16;;;;;;;7.68;6.70;;;17.60;96.80;;;;;;6218762;28;20051;-81
2023/04/29 14:48:18;;;;;;;6.28;5.63;;;17.60;96.90;;;;;;6214808;28;20050;-80
2023/04/29 14:51:20;;;;;;;8.68;6.82;;;17.40;97.00;;;;;;6216568;28;20045;-83
2023/04/29 14:54:23;;;;;;;6.00;5.40;;;17.30;97.20;;;;;;6214350;28;20058;-80
2023/04/29 14:57:25;;;;;;;6.90;5.90;;;17.20;97.50;;;;;;6214404;28;20042;-81
2023/04/29 15:00:26;;;;;;;7.63;5.60;;;17.10;97.70;;;;;;6211795;28;21538;-81
2023/04/29 15:03:29;;;;;;;9.23;5.63;;;17.00;97.80;;;;;;6209037;28;20042;-82
2023/04/29 15:06:35;;;;;;;8.38;6.40;;;16.80;97.80;;;;;;6213508;28;20049;-80
2023/04/29 15:09:40;;;;;;;5.43;4.65;;;16.70;97.80;;;;;;6214608;28;20050;-82
2023/04/29 15:12:42;;;;;;;5.97;4.70;;;16.60;98.00;;;;;;6213201;28;20061;-81
2023/04/29 15:15:44;;;;;;;7.43;6.22;;;16.40;98.00;;;;;;6211412;28;20100;-81
2023/04/29 15:18:45;;;;;;;6.07;5.47;;;16.30;98.20;;;;;;6210766;28;20058;-80
2023/04/29 15:21:47;;;;;;;7.38;5.82;;;16.30;98.40;;;;;;6205129;28;20057;-81
2023/04/29 15:24:51;;;;;;;7.03;5.50;;;16.20;98.50;;;;;;6208110;28;20065;-82
2023/04/29 15:27:53;;;;;;;6.20;5.22;;;16.20;98.70;;;;;;6210891;28;20084;-80
2023/04/29 15:30:55;;;;;;;8.63;4.68;;;16.20;99.00;;;;;;6208407;28;20181;-81
2023/04/29 15:33:56;;;;;;;6.30;4.65;;;16.40;99.20;;;;;;6212851;28;20054;-82
2023/04/29 15:36:58;;;;;;;7.18;5.45;;;16.40;99.10;;;;;;6210891;28;20488;-82
2023/04/29 15:40:02;;;;;;;5.10;4.60;;;16.40;98.80;;;;;;6210023;28;20043;-82
2023/04/29 15:43:04;;;;;;;9.32;4.95;;;16.40;99.00;;;;;;6212168;28;20046;-81
2023/04/29 15:46:05;;;;;;;8.55;6.22;;;16.40;99.10;;;;;;6212675;28;20065;-81